Time;durP1;ratioP1;P1;durP2;ratioP2;P2;SDS_P1;SDS_P2;PMS_P1;PMS_P2;Temp;Humidity;BMP_temperature;BMP_pressure;BME280_temperature;BME280_humidity;BME280_pressure;Samples;Min_cycle;Max_cycle;Signal;HPM_P1;HPM_P2
2022/01/12 00:01:20;;;;;;;6.23;4.97;;;;;;;2.90;77.30;102015.91;5031411;28;20228;-58
2022/01/12 00:03:45;;;;;;;5.43;4.80;;;;;;;2.92;77.62;102015.97;5051479;28;20193;-59
2022/01/12 00:06:12;;;;;;;5.93;4.87;;;;;;;3.02;77.75;102017.72;5052365;28;20601;-59
2022/01/12 00:08:37;;;;;;;6.23;4.93;;;;;;;3.10;77.55;102018.66;5052242;28;20173;-57
2022/01/12 00:11:04;;;;;;;6.57;5.60;;;;;;;3.13;77.55;102022.91;5041289;28;20609;-58
2022/01/12 00:13:30;;;;;;;5.23;4.70;;;;;;;3.17;76.54;102025.44;5051359;28;20196;-57
2022/01/12 00:15:55;;;;;;;4.73;4.33;;;;;;;2.78;75.28;102020.91;5041125;28;20311;-59
2022/01/12 00:18:21;;;;;;;6.13;5.20;;;;;;;2.71;75.35;102023.38;5051412;28;20168;-57
2022/01/12 00:20:49;;;;;;;6.47;5.00;;;;;;;2.92;75.13;102031.22;5042029;28;20236;-58
2022/01/12 00:23:15;;;;;;;5.63;5.07;;;;;;;2.88;75.29;102028.63;5051326;28;20177;-60
2022/01/12 00:33:56;;;;;;;7.00;5.33;;;;;;;2.98;76.49;102042.28;5051139;28;20271;-58
2022/01/12 00:36:21;;;;;;;5.30;4.80;;;;;;;3.13;77.10;102038.16;5051476;28;20276;-57
2022/01/12 00:38:47;;;;;;;6.03;5.43;;;;;;;3.22;76.97;102038.22;5051536;28;20180;-57
2022/01/12 00:41:16;;;;;;;6.10;5.50;;;;;;;3.23;77.02;102037.38;5040348;28;20242;-57
2022/01/12 00:43:44;;;;;;;5.70;5.10;;;;;;;3.23;77.20;102040.75;5050679;28;20178;-57
2022/01/12 00:46:09;;;;;;;6.00;5.40;;;;;;;3.20;77.58;102043.28;5051490;28;20177;-58
2022/01/12 00:48:36;;;;;;;6.00;5.40;;;;;;;3.19;77.80;102045.84;5064065;28;20581;-56
2022/01/12 00:51:03;;;;;;;5.90;5.30;;;;;;;3.14;78.43;102044.91;5051490;28;20700;-58
2022/01/12 00:53:28;;;;;;;5.20;4.70;;;;;;;3.13;77.51;102039.00;5054996;28;20177;-58
2022/01/12 00:55:53;;;;;;;5.13;4.63;;;;;;;3.09;77.09;102038.94;5041703;28;20184;-58
2022/01/12 00:58:19;;;;;;;5.40;4.90;;;;;;;3.09;77.00;102032.19;5033710;28;20547;-59
2022/01/12 01:00:44;;;;;;;5.60;5.10;;;;;;;2.77;77.44;102031.91;5021893;28;20344;-59
2022/01/12 01:03:10;;;;;;;5.73;5.20;;;;;;;2.61;77.94;102030.94;5049417;28;20267;-59
2022/01/12 01:05:36;;;;;;;6.13;5.60;;;;;;;2.31;79.70;102029.75;5050868;28;20174;-58
2022/01/12 01:08:02;;;;;;;6.13;5.53;;;;;;;2.20;81.09;102019.50;5051140;28;20586;-58
2022/01/12 01:10:46;;;;;;;5.73;5.13;;;;;;;2.30;82.19;102010.31;5040044;28;20237;-58
2022/01/12 01:13:25;;;;;;;6.17;5.53;;;;;;;2.19;81.30;102013.56;5050345;28;20833;-58
2022/01/12 01:26:37;;;;;;;6.50;5.90;;;;;;;1.70;81.50;102018.91;5031119;28;20547;-58
2022/01/12 01:29:03;;;;;;;6.53;5.83;;;;;;;1.49;83.32;102028.75;5013140;28;20225;-58
2022/01/12 01:31:31;;;;;;;6.60;5.83;;;;;;;1.39;84.50;102033.69;5019925;28;20233;-58
2022/01/12 01:34:05;;;;;;;6.50;5.90;;;;;;;1.37;85.52;102032.81;5030317;28;20193;-58
2022/01/12 01:36:30;;;;;;;7.27;6.57;;;;;;;1.24;85.02;102029.25;5030652;28;20194;-58
2022/01/12 01:38:55;;;;;;;7.00;6.30;;;;;;;1.12;85.91;102024.00;5030434;28;20178;-58
2022/01/12 01:41:21;;;;;;;6.17;5.57;;;;;;;1.02;86.41;102032.25;5019911;28;20593;-58
2022/01/12 01:44:19;;;;;;;7.33;6.63;;;;;;;0.86;87.55;102036.25;5029978;28;20200;-58
2022/01/12 01:54:53;;;;;;;8.27;6.87;;;;;;;0.58;91.76;102053.47;5070242;28;20261;-59
2022/01/12 01:57:19;;;;;;;13.73;7.63;;;;;;;0.45;92.90;102044.81;5070479;28;20259;-56
2022/01/12 01:59:45;;;;;;;9.23;7.03;;;;;;;0.48;93.92;102040.66;5070555;28;20309;-59
2022/01/12 02:02:11;;;;;;;8.10;6.70;;;;;;;0.50;93.91;102050.81;5050679;28;20259;-56
2022/01/12 02:04:37;;;;;;;7.93;7.07;;;;;;;0.61;94.17;102039.19;5070323;28;20252;-56
2022/01/12 02:07:02;;;;;;;10.10;7.20;;;;;;;0.51;93.79;102039.88;5070557;28;20264;-58
2022/01/12 02:09:28;;;;;;;7.73;6.67;;;;;;;0.51;94.64;102049.13;5070597;28;20250;-57
2022/01/12 02:11:53;;;;;;;8.00;7.07;;;;;;;0.38;95.24;102048.91;5059041;28;20267;-56
2022/01/12 02:14:20;;;;;;;10.47;7.50;;;;;;;0.38;95.66;102056.50;5070002;28;20807;-56
2022/01/12 02:16:57;;;;;;;7.60;6.77;;;;;;;0.36;96.38;102062.34;5070428;28;20179;-57
2022/01/12 02:36:20;;;;;;;12.00;7.77;;;;;;;0.07;100.00;102053.34;5070125;28;20569;-58
2022/01/12 02:41:49;;;;;;;9.37;7.50;;;;;;;0.04;100.00;102055.84;4997889;28;20257;-59
2022/01/12 02:54:46;;;;;;;9.87;8.03;;;;;;;-0.30;100.00;102056.78;5054026;28;20239;-58
2022/01/12 02:57:12;;;;;;;11.60;9.03;;;;;;;-0.31;100.00;102055.06;5057060;28;20676;-58
2022/01/12 02:59:46;;;;;;;11.63;8.87;;;;;;;-0.42;100.00;102063.28;5053435;28;20173;-58
2022/01/12 03:07:44;;;;;;;11.10;8.60;;;;;;;-0.42;100.00;102082.63;4972306;28;20179;-57
2022/01/12 03:10:10;;;;;;;11.23;9.13;;;;;;;-0.48;100.00;102080.84;4962287;28;20245;-57
2022/01/12 03:12:42;;;;;;;11.50;8.40;;;;;;;-0.54;100.00;102079.03;4972247;28;20250;-58
2022/01/12 03:15:08;;;;;;;11.53;9.03;;;;;;;-0.53;100.00;102087.47;4971996;28;20642;-58
2022/01/12 03:17:34;;;;;;;10.87;8.53;;;;;;;-0.45;100.00;102087.66;4972253;28;20199;-58
2022/01/12 03:19:59;;;;;;;12.20;8.83;;;;;;;-0.50;100.00;102080.81;4972373;28;20175;-58
2022/01/12 03:22:25;;;;;;;9.90;8.90;;;;;;;-0.54;100.00;102073.13;4962105;28;20322;-58
2022/01/12 03:24:50;;;;;;;11.60;8.37;;;;;;;-0.67;100.00;102075.38;4971983;28;20675;-58
2022/01/12 03:27:16;;;;;;;11.93;8.67;;;;;;;-0.70;100.00;102082.00;4971989;28;20217;-58
2022/01/12 03:29:44;;;;;;;10.30;8.73;;;;;;;-0.68;100.00;102093.88;4971983;28;20198;-58
2022/01/12 03:32:12;;;;;;;9.87;7.90;;;;;;;-0.68;100.00;102098.06;4961959;28;20713;-58
2022/01/12 03:34:41;;;;;;;9.30;8.20;;;;;;;-0.74;100.00;102108.88;4971458;28;20203;-58
2022/01/12 03:39:50;;;;;;;10.17;7.93;;;;;;;-0.82;100.00;102111.22;4972019;28;20194;-58
2022/01/12 03:42:15;;;;;;;11.17;8.53;;;;;;;-0.79;100.00;102112.09;5026124;28;20237;-58
2022/01/12 03:44:41;;;;;;;9.27;7.23;;;;;;;-0.80;100.00;102118.84;5052468;28;20181;-57
2022/01/12 03:47:06;;;;;;;10.73;8.37;;;;;;;-0.92;100.00;102124.41;5052650;28;20555;-58
2022/01/12 03:49:31;;;;;;;10.23;8.83;;;;;;;-0.92;100.00;102116.84;5052526;28;20172;-58
2022/01/12 03:51:57;;;;;;;10.80;8.47;;;;;;;-0.96;100.00;102114.22;5041004;28;20688;-57
2022/01/12 03:54:22;;;;;;;10.13;8.87;;;;;;;-1.14;100.00;102111.25;5051900;28;20202;-58
2022/01/12 03:56:47;;;;;;;12.13;9.10;;;;;;;-1.18;100.00;102112.00;5052353;28;20182;-58
2022/01/12 03:59:14;;;;;;;9.20;8.07;;;;;;;-1.07;100.00;102113.94;5052318;28;20256;-57
2022/01/12 04:01:39;;;;;;;11.33;9.37;;;;;;;-1.09;100.00;102113.91;5030584;28;20236;-58
2022/01/12 04:04:09;;;;;;;10.13;8.53;;;;;;;-1.17;100.00;102118.72;5051956;28;20685;-58
2022/01/12 04:09:19;;;;;;;9.53;8.40;;;;;;;-1.18;100.00;102134.72;5059165;28;20318;-58
2022/01/12 04:11:45;;;;;;;10.73;9.23;;;;;;;-1.12;100.00;102130.66;5030701;28;20279;-59
2022/01/12 04:14:11;;;;;;;10.87;8.00;;;;;;;-1.09;100.00;102118.97;5066761;28;20203;-57
2022/01/12 04:16:37;;;;;;;10.43;8.60;;;;;;;-1.02;100.00;102123.34;5060715;28;20628;-58
2022/01/12 04:19:03;;;;;;;11.83;8.60;;;;;;;-0.95;100.00;102126.88;5071808;28;20178;-58
2022/01/12 04:21:31;;;;;;;11.33;8.40;;;;;;;-0.96;100.00;102124.31;5060597;28;20286;-58
2022/01/12 04:23:58;;;;;;;10.17;8.80;;;;;;;-0.86;100.00;102126.25;5071232;28;20304;-58
2022/01/12 04:26:25;;;;;;;13.03;9.40;;;;;;;-0.78;100.00;102121.41;5072017;28;20625;-58
2022/01/12 04:28:50;;;;;;;10.80;9.00;;;;;;;-0.86;100.00;102124.56;5071911;28;20165;-58
2022/01/12 04:31:16;;;;;;;9.93;8.07;;;;;;;-0.90;100.00;102114.38;5040127;28;20231;-58
2022/01/12 04:33:43;;;;;;;9.77;8.70;;;;;;;-1.11;100.00;102113.00;5070366;28;20211;-58
2022/01/12 04:36:09;;;;;;;10.73;8.70;;;;;;;-0.89;100.00;102111.88;5071505;28;20230;-58
2022/01/12 04:38:37;;;;;;;11.37;9.17;;;;;;;-0.90;100.00;102110.16;5071691;28;20527;-58
2022/01/12 04:41:05;;;;;;;11.27;9.10;;;;;;;-1.08;100.00;102104.66;5060618;28;20240;-58
2022/01/12 04:43:32;;;;;;;11.17;8.60;;;;;;;-1.34;100.00;102092.19;5070852;28;20177;-58
2022/01/12 04:46:20;;;;;;;9.47;8.47;;;;;;;-1.46;100.00;102093.56;5071373;28;20181;-57
2022/01/12 04:51:27;;;;;;;10.37;8.53;;;;;;;-1.14;100.00;102090.22;5060233;28;20349;-57
2022/01/12 04:53:53;;;;;;;9.77;8.53;;;;;;;-1.28;100.00;102088.97;5070665;28;20214;-57
2022/01/12 04:56:18;;;;;;;11.93;9.33;;;;;;;-1.07;100.00;102093.72;5062139;28;20634;-57
2022/01/12 04:58:44;;;;;;;11.53;9.47;;;;;;;-0.91;100.00;102105.09;5051223;28;20192;-56
2022/01/12 05:01:13;;;;;;;12.70;9.07;;;;;;;-0.69;100.00;102106.47;5040158;28;20225;-57
2022/01/12 05:14:55;;;;;;;15.30;10.67;;;;;;;-0.33;100.00;102092.97;5050142;28;20215;-57
2022/01/12 05:17:21;;;;;;;9.87;8.73;;;;;;;-0.45;100.00;102088.50;5051106;28;20168;-58
2022/01/12 05:19:46;;;;;;;9.70;8.33;;;;;;;-0.35;100.00;102087.91;5032944;28;20514;-58
2022/01/12 05:22:11;;;;;;;11.83;8.83;;;;;;;-0.29;100.00;102084.63;5039496;28;20248;-58
2022/01/12 05:24:36;;;;;;;11.97;9.17;;;;;;;-0.16;100.00;102083.25;5050654;28;20517;-58
2022/01/12 05:27:02;;;;;;;17.50;9.63;;;;;;;-0.23;100.00;102083.94;5050905;28;20174;-58
2022/01/12 05:29:27;;;;;;;12.20;9.47;;;;;;;-0.44;100.00;102084.31;5051073;28;20227;-58
2022/01/12 05:31:53;;;;;;;10.63;8.50;;;;;;;-0.38;100.00;102095.41;5039648;28;20236;-58
2022/01/12 05:34:18;;;;;;;13.57;9.83;;;;;;;-0.30;100.00;102097.25;5050156;28;20228;-58
2022/01/12 05:36:43;;;;;;;11.23;8.20;;;;;;;-0.38;100.00;102092.03;5050467;28;20186;-58
2022/01/12 05:39:09;;;;;;;13.33;10.03;;;;;;;-0.44;100.00;102100.31;5050643;28;20251;-58
2022/01/12 05:41:34;;;;;;;14.33;11.00;;;;;;;-0.27;100.00;102120.94;5022225;28;20261;-58
2022/01/12 05:43:59;;;;;;;15.40;11.90;;;;;;;-0.30;100.00;102130.13;5049873;28;20186;-58
2022/01/12 05:46:26;;;;;;;17.73;11.33;;;;;;;-0.30;100.00;102133.50;5050600;28;20638;-59
2022/01/12 05:51:35;;;;;;;12.17;9.63;;;;;;;-0.23;100.00;102139.56;5051252;28;20672;-59
2022/01/12 05:54:01;;;;;;;13.10;9.37;;;;;;;-0.20;100.00;102139.63;5070065;28;20184;-58
2022/01/12 05:56:26;;;;;;;11.90;8.93;;;;;;;-0.25;100.00;102129.44;5060234;28;20312;-58
2022/01/12 05:58:52;;;;;;;11.03;8.60;;;;;;;-0.45;100.00;102121.34;5050489;28;20200;-57
2022/01/12 06:01:18;;;;;;;11.07;8.03;;;;;;;-0.49;100.00;102125.47;5039518;28;20737;-58
2022/01/12 06:03:43;;;;;;;11.73;9.10;;;;;;;-0.61;100.00;102137.00;5049690;28;20212;-57
2022/01/12 06:06:08;;;;;;;11.30;9.43;;;;;;;-1.06;100.00;102135.88;5050545;28;20177;-58
2022/01/12 06:08:34;;;;;;;11.00;8.87;;;;;;;-1.19;100.00;102140.59;5050388;28;20181;-57
2022/01/12 06:10:59;;;;;;;11.80;9.40;;;;;;;-1.34;100.00;102132.56;5039692;28;20232;-58
2022/01/12 06:13:25;;;;;;;11.17;8.83;;;;;;;-1.41;100.00;102135.78;5049718;28;20179;-58
2022/01/12 06:15:50;;;;;;;12.23;9.00;;;;;;;-1.47;100.00;102128.88;5050167;28;20192;-57
2022/01/12 06:18:15;;;;;;;11.30;8.83;;;;;;;-1.48;100.00;102134.72;5050270;28;20190;-57
2022/01/12 06:20:41;;;;;;;12.07;9.93;;;;;;;-1.46;100.00;102141.53;5039863;28;20250;-58
2022/01/12 06:23:06;;;;;;;11.93;9.80;;;;;;;-1.26;100.00;102153.00;5049699;28;20197;-58
2022/01/12 06:25:31;;;;;;;10.63;9.07;;;;;;;-1.16;100.00;102154.97;5050946;28;20177;-57
2022/01/12 06:28:09;;;;;;;13.40;9.20;;;;;;;-1.14;100.00;102165.97;5054219;28;20180;-57
2022/01/12 06:33:19;;;;;;;10.30;9.10;;;;;;;-1.33;100.00;102160.41;5053623;28;20230;-58
2022/01/12 06:35:45;;;;;;;10.93;9.77;;;;;;;-1.42;100.00;102159.31;5053793;28;20591;-58
2022/01/12 06:38:10;;;;;;;13.27;9.10;;;;;;;-1.28;100.00;102165.56;5053732;28;20178;-58
2022/01/12 06:40:35;;;;;;;13.13;9.13;;;;;;;-1.32;100.00;102162.09;5043261;28;20243;-58
2022/01/12 06:43:02;;;;;;;12.30;9.63;;;;;;;-1.25;100.00;102168.19;5052856;28;20204;-57
2022/01/12 06:45:27;;;;;;;14.70;9.97;;;;;;;-1.38;100.00;102156.88;5053445;28;20660;-57
2022/01/12 06:47:52;;;;;;;12.30;10.00;;;;;;;-1.58;100.00;102150.44;5066101;28;20275;-57
2022/01/12 06:50:18;;;;;;;11.80;9.40;;;;;;;-1.39;100.00;102155.19;5061173;28;20169;-58
2022/01/12 06:52:43;;;;;;;10.67;9.20;;;;;;;-1.30;100.00;102168.06;5066541;28;20195;-58
2022/01/12 06:55:09;;;;;;;12.97;10.00;;;;;;;-1.30;100.00;102172.28;5073180;28;20183;-57
2022/01/12 06:57:34;;;;;;;12.60;10.30;;;;;;;-1.26;100.00;102195.94;5053998;28;20273;-57
2022/01/12 06:59:59;;;;;;;10.63;9.37;;;;;;;-1.24;100.00;102199.34;5053437;28;20219;-58
2022/01/12 07:02:25;;;;;;;14.17;9.57;;;;;;;-1.28;100.00;102205.13;5042160;28;20846;-57
2022/01/12 07:04:50;;;;;;;13.40;10.27;;;;;;;-1.22;100.00;102206.16;5053154;28;20176;-56
2022/01/12 07:07:15;;;;;;;11.67;9.33;;;;;;;-1.32;100.00;102202.50;5053378;28;20192;-57
2022/01/12 07:09:40;;;;;;;11.63;9.30;;;;;;;-1.37;100.00;102201.53;5053475;28;20173;-57
2022/01/12 07:12:06;;;;;;;17.47;10.13;;;;;;;-1.39;100.00;102213.25;5042080;28;20255;-57
2022/01/12 07:14:32;;;;;;;13.97;9.73;;;;;;;-1.37;100.00;102216.66;5053004;28;20177;-58
2022/01/12 07:16:58;;;;;;;13.07;10.00;;;;;;;-1.32;100.00;102222.69;5053028;28;20573;-57
2022/01/12 07:19:24;;;;;;;12.07;10.10;;;;;;;-1.29;100.00;102237.09;5053343;28;20177;-58
2022/01/12 07:21:49;;;;;;;16.57;9.93;;;;;;;-1.41;100.00;102241.81;5042390;28;20224;-57
2022/01/12 07:24:14;;;;;;;11.57;9.80;;;;;;;-1.39;100.00;102253.66;5060568;28;20702;-58
2022/01/12 07:26:40;;;;;;;12.63;10.10;;;;;;;-1.41;100.00;102254.44;5062420;28;20235;-58
2022/01/12 07:29:05;;;;;;;15.20;11.27;;;;;;;-1.27;100.00;102259.88;5063875;28;20180;-59
2022/01/12 07:31:32;;;;;;;12.67;10.27;;;;;;;-1.33;100.00;102270.63;5048708;28;20239;-58
2022/01/12 07:33:57;;;;;;;11.57;9.70;;;;;;;-1.26;100.00;102274.22;5056733;28;20181;-57
2022/01/12 07:36:23;;;;;;;14.37;11.47;;;;;;;-1.22;100.00;102266.75;5049613;28;20254;-58
2022/01/12 07:38:53;;;;;;;12.53;10.47;;;;;;;-1.17;100.00;102266.91;5055683;28;20181;-58
2022/01/12 07:41:19;;;;;;;12.10;9.93;;;;;;;-1.36;100.00;102265.53;5053104;28;20228;-58
2022/01/12 07:43:44;;;;;;;15.60;10.77;;;;;;;-1.18;100.00;102270.22;5055176;28;20184;-59
2022/01/12 07:46:09;;;;;;;14.60;11.00;;;;;;;-1.06;100.00;102274.78;5052452;28;20185;-58
2022/01/12 07:48:35;;;;;;;15.17;10.40;;;;;;;-0.96;100.00;102273.38;5059085;28;20639;-58
2022/01/12 07:51:00;;;;;;;16.03;10.73;;;;;;;-0.88;100.00;102270.25;5049251;28;20227;-58
2022/01/12 07:53:25;;;;;;;14.23;10.70;;;;;;;-0.91;100.00;102270.16;5063232;28;20595;-58
2022/01/12 07:55:50;;;;;;;17.37;12.10;;;;;;;-1.03;100.00;102260.59;5047263;28;20189;-58
2022/01/12 07:58:16;;;;;;;15.80;11.13;;;;;;;-1.06;100.00;102275.63;5057318;28;20259;-58
2022/01/12 08:00:41;;;;;;;14.63;10.90;;;;;;;-0.91;100.00;102282.78;5040836;28;20259;-58
2022/01/12 08:03:07;;;;;;;13.87;11.00;;;;;;;-0.74;100.00;102283.28;5061377;28;20264;-58
2022/01/12 08:05:33;;;;;;;13.37;10.67;;;;;;;-0.66;100.00;102273.34;5057244;28;20185;-58
2022/01/12 08:07:59;;;;;;;14.93;11.33;;;;;;;-0.84;100.00;102272.06;5054144;28;20189;-58
2022/01/12 08:10:24;;;;;;;12.83;10.63;;;;;;;-0.67;100.00;102275.03;5044650;28;20238;-58
2022/01/12 08:12:50;;;;;;;14.60;10.73;;;;;;;-0.78;100.00;102267.97;5057745;28;20168;-58
2022/01/12 08:15:15;;;;;;;17.77;11.50;;;;;;;-1.03;100.00;102273.22;5043372;28;20192;-58
2022/01/12 08:17:40;;;;;;;16.07;10.80;;;;;;;-0.74;100.00;102285.78;5065876;28;20256;-58
2022/01/12 08:20:11;;;;;;;13.30;10.67;;;;;;;-0.66;100.00;102275.88;5042261;28;20534;-58
2022/01/12 08:22:37;;;;;;;18.50;11.43;;;;;;;-0.71;100.00;102283.38;5043494;28;20223;-58
2022/01/12 08:25:04;;;;;;;13.70;10.50;;;;;;;-0.64;100.00;102286.91;5061319;28;20646;-58
2022/01/12 08:27:29;;;;;;;14.50;10.77;;;;;;;-0.54;100.00;102290.53;5062425;28;20263;-58
2022/01/12 08:30:00;;;;;;;14.83;11.00;;;;;;;-0.57;100.00;102286.25;5057246;28;20267;-58
2022/01/12 08:32:26;;;;;;;17.00;11.00;;;;;;;-0.67;100.00;102282.63;4986470;28;20226;-58
2022/01/12 08:34:51;;;;;;;13.07;10.03;;;;;;;-0.61;100.00;102281.06;5038565;28;20189;-58
2022/01/12 08:37:16;;;;;;;18.77;10.80;;;;;;;-0.52;100.00;102297.34;5036269;28;20175;-58
2022/01/12 08:39:42;;;;;;;20.03;11.43;;;;;;;-0.48;100.00;102300.81;5040473;28;20180;-58
2022/01/12 08:42:07;;;;;;;17.40;10.70;;;;;;;-0.45;100.00;102308.47;5044939;28;20231;-58
2022/01/12 08:44:35;;;;;;;14.67;11.23;;;;;;;-0.54;100.00;102304.03;5063101;28;20687;-58
2022/01/12 08:47:00;;;;;;;16.53;11.47;;;;;;;-0.67;100.00;102305.38;5071679;28;20677;-57
2022/01/12 08:49:25;;;;;;;14.43;11.60;;;;;;;-0.34;100.00;102307.06;5066281;28;20211;-58
2022/01/12 08:51:51;;;;;;;16.30;12.47;;;;;;;-0.05;100.00;102308.66;5043446;28;20223;-58
2022/01/12 08:54:16;;;;;;;15.13;11.33;;;;;;;0.29;100.00;102306.94;5059425;28;20287;-59
2022/01/12 08:56:42;;;;;;;14.07;11.67;;;;;;;0.43;100.00;102309.78;5059138;28;20184;-59
2022/01/12 08:59:07;;;;;;;14.67;11.83;;;;;;;0.85;100.00;102300.59;5065070;28;20187;-58
2022/01/12 09:01:32;;;;;;;13.77;12.17;;;;;;;1.17;100.00;102291.09;5045159;28;20229;-58
2022/01/12 09:03:57;;;;;;;17.77;14.60;;;;;;;1.34;100.00;102295.63;5062648;28;21059;-58
2022/01/12 09:06:23;;;;;;;16.63;13.33;;;;;;;1.46;100.00;102300.94;5067177;28;20553;-58
2022/01/12 09:08:49;;;;;;;13.20;11.37;;;;;;;1.87;100.00;102307.59;5071258;28;20531;-58
2022/01/12 09:11:15;;;;;;;14.63;11.83;;;;;;;2.71;96.94;102297.84;5039188;28;20237;-57
2022/01/12 09:13:44;;;;;;;13.90;11.20;;;;;;;4.78;87.01;102306.56;5064949;28;20176;-58
2022/01/12 09:16:11;;;;;;;10.10;9.00;;;;;;;7.10;69.37;102305.81;5071747;28;20890;-58
2022/01/12 09:18:37;;;;;;;7.93;7.13;;;;;;;7.15;61.96;102308.34;5072174;28;20162;-59
2022/01/12 09:21:04;;;;;;;9.07;7.37;;;;;;;6.55;63.16;102317.91;5051671;28;20610;-59
2022/01/12 09:23:29;;;;;;;9.77;7.40;;;;;;;5.86;66.14;102310.28;5070040;28;20642;-58
2022/01/12 09:25:54;;;;;;;8.43;6.90;;;;;;;5.37;68.04;102308.47;5070914;28;20328;-58
2022/01/12 09:28:20;;;;;;;7.87;7.03;;;;;;;5.19;68.80;102322.88;5070670;28;20406;-58
2022/01/12 09:30:45;;;;;;;7.63;6.93;;;;;;;5.23;71.23;102328.84;5054414;28;20252;-58
2022/01/12 09:33:11;;;;;;;7.97;7.10;;;;;;;7.46;63.42;102323.53;5058038;28;20296;-58
2022/01/12 09:35:36;;;;;;;6.83;5.90;;;;;;;9.57;53.66;102333.41;5054131;28;20284;-58
2022/01/12 09:38:02;;;;;;;6.70;6.10;;;;;;;10.84;47.83;102333.00;5052072;28;20229;-59
2022/01/12 09:40:27;;;;;;;7.10;6.40;;;;;;;11.85;45.01;102335.09;5053552;28;20229;-59
2022/01/12 09:42:53;;;;;;;6.40;5.80;;;;;;;11.09;44.71;102329.06;5065218;28;20203;-58
2022/01/12 09:45:19;;;;;;;7.63;6.93;;;;;;;9.59;49.12;102335.94;5063337;28;20598;-58
2022/01/12 09:47:47;;;;;;;6.83;6.20;;;;;;;9.40;50.95;102350.78;5060261;28;20215;-59
2022/01/12 09:50:15;;;;;;;7.23;6.53;;;;;;;9.42;51.05;102349.06;5042768;28;20862;-59
2022/01/12 09:52:40;;;;;;;8.17;6.97;;;;;;;8.56;52.68;102364.59;5047782;28;20165;-58
2022/01/12 09:55:06;;;;;;;9.27;6.70;;;;;;;7.62;55.30;102357.59;5055701;28;20780;-57
2022/01/12 09:57:32;;;;;;;8.87;7.77;;;;;;;6.98;58.51;102351.91;5060351;28;20181;-57
2022/01/12 09:59:57;;;;;;;10.40;7.83;;;;;;;6.58;61.04;102361.38;5064608;28;20230;-57
2022/01/12 10:02:22;;;;;;;9.00;6.80;;;;;;;6.48;61.79;102354.56;5052786;28;20331;-58
2022/01/12 10:05:03;;;;;;;9.43;7.17;;;;;;;6.14;62.60;102359.72;5063101;28;20173;-58
2022/01/12 10:07:28;;;;;;;7.60;6.90;;;;;;;6.03;64.07;102354.59;5055146;28;20299;-58
2022/01/12 10:10:00;;;;;;;8.50;7.07;;;;;;;6.07;64.11;102361.41;5070774;28;20181;-57
2022/01/12 10:12:27;;;;;;;9.03;7.60;;;;;;;6.82;62.15;102351.94;5046396;28;20288;-58
2022/01/12 10:14:59;;;;;;;7.93;7.13;;;;;;;7.43;58.26;102357.72;5056046;28;20175;-58
2022/01/12 10:17:32;;;;;;;8.07;7.30;;;;;;;7.26;58.16;102343.25;5074357;28;20168;-58
2022/01/12 10:20:06;;;;;;;8.80;6.93;;;;;;;7.10;58.09;102351.88;5074309;28;20172;-58
2022/01/12 10:22:31;;;;;;;7.83;7.03;;;;;;;6.83;59.17;102345.97;5004974;28;20298;-58
2022/01/12 10:24:59;;;;;;;8.03;7.17;;;;;;;6.27;61.51;102338.41;5053527;28;20169;-58
2022/01/12 10:27:24;;;;;;;8.47;7.67;;;;;;;5.98;62.63;102343.50;5050134;28;20189;-57
2022/01/12 10:30:00;;;;;;;9.70;8.23;;;;;;;5.40;64.23;102336.59;5053906;28;20174;-59
2022/01/12 10:32:26;;;;;;;8.53;7.67;;;;;;;5.37;65.58;102342.53;5035610;28;20709;-59
2022/01/12 10:34:52;;;;;;;10.23;8.10;;;;;;;5.10;66.87;102343.28;5033518;28;20220;-58
2022/01/12 10:37:22;;;;;;;9.43;8.43;;;;;;;4.64;68.85;102337.09;5033811;28;20209;-58
2022/01/12 10:39:49;;;;;;;9.60;8.60;;;;;;;4.32;71.14;102340.25;5033781;28;20198;-58
2022/01/12 10:42:19;;;;;;;12.73;8.83;;;;;;;4.24;72.36;102344.44;5039059;28;20288;-57
2022/01/12 10:44:47;;;;;;;9.95;8.68;;;;;;;3.84;73.07;102344.09;5052943;28;20412;-58
2022/01/12 10:47:20;;;;;;;9.57;8.50;;;;;;;3.88;73.46;102356.88;5060845;28;20222;-58
2022/01/12 10:49:54;;;;;;;10.00;8.37;;;;;;;3.99;71.95;102364.59;5073666;28;20165;-57
2022/01/12 10:52:24;;;;;;;8.30;7.33;;;;;;;4.09;71.57;102365.53;5062059;28;20601;-58
2022/01/12 10:54:52;;;;;;;8.93;7.93;;;;;;;3.87;72.05;102360.25;5073361;28;20188;-57
2022/01/12 10:57:23;;;;;;;9.37;8.13;;;;;;;4.20;71.87;102353.78;5055747;28;20181;-59
2022/01/12 11:00:03;;;;;;;8.53;7.67;;;;;;;4.47;69.29;102351.41;5058567;28;20737;-57
2022/01/12 11:02:29;;;;;;;8.00;7.20;;;;;;;4.88;67.44;102343.16;5008949;28;20245;-57
2022/01/12 11:04:59;;;;;;;6.77;6.07;;;;;;;5.07;64.68;102349.19;5052167;28;20217;-59
2022/01/12 11:07:26;;;;;;;7.20;6.50;;;;;;;5.21;63.07;102340.75;5055695;28;20188;-59
2022/01/12 11:09:55;;;;;;;7.67;6.87;;;;;;;5.25;62.91;102342.50;5062789;28;20251;-57
2022/01/12 11:12:20;;;;;;;9.13;7.80;;;;;;;4.84;64.19;102342.28;5043449;28;20256;-57
2022/01/12 11:14:46;;;;;;;8.33;7.53;;;;;;;4.95;64.39;102352.56;5073028;28;20582;-57
2022/01/12 11:17:11;;;;;;;9.48;8.13;;;;;;;5.12;65.81;102346.66;5073150;28;20974;-57
2022/01/12 11:19:38;;;;;;;9.67;7.97;;;;;;;5.00;67.65;102347.47;5067685;28;20173;-57
2022/01/12 11:22:20;;;;;;;9.13;7.67;;;;;;;4.98;68.78;102342.34;5041567;28;20226;-57
2022/01/12 11:24:46;;;;;;;11.63;8.53;;;;;;;5.23;68.65;102337.34;5054890;28;20484;-57
2022/01/12 11:27:21;;;;;;;9.30;8.40;;;;;;;5.05;68.05;102335.59;5060420;28;20185;-57
2022/01/12 11:29:46;;;;;;;8.93;8.03;;;;;;;5.33;68.37;102325.47;5063776;28;20171;-58
2022/01/12 11:32:13;;;;;;;12.47;9.27;;;;;;;5.64;67.64;102320.44;5060721;28;20828;-58
2022/01/12 11:34:38;;;;;;;10.53;8.80;;;;;;;5.85;66.91;102308.56;5072578;28;20173;-58
2022/01/12 11:37:12;;;;;;;9.03;7.63;;;;;;;5.82;65.82;102314.53;5054790;28;20331;-57
2022/01/12 11:39:37;;;;;;;10.07;8.30;;;;;;;5.84;66.31;102301.75;5061847;28;20339;-58
2022/01/12 11:42:03;;;;;;;10.17;8.40;;;;;;;5.72;64.88;102302.56;5040982;28;20228;-57
2022/01/12 11:44:35;;;;;;;9.77;7.70;;;;;;;5.28;65.79;102288.91;5052894;28;20167;-58
2022/01/12 11:47:03;;;;;;;8.57;7.67;;;;;;;4.99;66.91;102294.75;5053687;28;20668;-59
2022/01/12 11:49:37;;;;;;;7.93;6.73;;;;;;;4.87;66.13;102302.34;5061076;28;20197;-58
2022/01/12 11:52:15;;;;;;;7.47;6.40;;;;;;;4.39;66.71;102296.97;5054653;28;20312;-58
2022/01/12 11:54:45;;;;;;;8.33;7.43;;;;;;;4.05;69.46;102300.13;5054716;28;20260;-58
2022/01/12 11:57:13;;;;;;;11.50;7.53;;;;;;;4.29;70.49;102302.03;5052452;28;20170;-58
2022/01/12 12:00:02;;;;;;;9.63;8.63;;;;;;;4.09;70.96;102301.00;5052409;28;20177;-58
2022/01/12 12:02:37;;;;;;;9.77;8.63;;;;;;;4.32;71.73;102301.19;4997746;28;20333;-58
2022/01/12 12:05:13;;;;;;;12.00;9.80;;;;;;;4.46;71.77;102293.63;5052268;28;20173;-58
2022/01/12 12:07:52;;;;;;;10.10;9.10;;;;;;;4.47;72.17;102288.53;5052540;28;20173;-58
2022/01/12 12:10:20;;;;;;;12.53;8.90;;;;;;;4.73;71.70;102290.38;5041620;28;20169;-58
2022/01/12 12:12:47;;;;;;;9.23;8.00;;;;;;;4.62;70.33;102292.03;5051955;28;20526;-58
2022/01/12 12:15:13;;;;;;;8.83;7.70;;;;;;;4.52;70.76;102283.47;5042080;28;20209;-57
2022/01/12 12:17:41;;;;;;;8.67;7.20;;;;;;;4.14;71.70;102282.41;5051571;28;20180;-57
2022/01/12 12:20:10;;;;;;;9.17;8.13;;;;;;;4.11;73.49;102278.97;5042243;28;20173;-57
2022/01/12 12:22:39;;;;;;;11.47;8.40;;;;;;;4.39;73.03;102277.47;5051042;28;20256;-57
2022/01/12 12:25:08;;;;;;;10.73;7.40;;;;;;;4.12;71.82;102278.97;5053119;28;20654;-57
2022/01/12 12:27:36;;;;;;;10.53;8.90;;;;;;;4.27;73.37;102283.31;5061230;28;20173;-57
2022/01/12 12:30:05;;;;;;;12.07;10.05;;;;;;;4.65;73.23;102280.16;5069279;28;20406;-57
2022/01/12 12:32:39;;;;;;;10.43;9.43;;;;;;;4.55;73.16;102270.72;5049097;28;20239;-57
2022/01/12 12:35:16;;;;;;;11.27;9.97;;;;;;;4.32;72.02;102268.91;5071733;28;20741;-58
2022/01/12 12:38:03;;;;;;;9.47;8.47;;;;;;;4.08;72.74;102266.19;5055916;28;20731;-58
2022/01/12 12:40:32;;;;;;;9.30;7.93;;;;;;;4.26;74.11;102261.22;5047470;28;20221;-57
2022/01/12 12:43:22;;;;;;;21.05;15.90;;;;;;;4.61;71.84;102263.13;5045835;28;20426;-58
2022/01/12 12:45:56;;;;;;;9.80;8.63;;;;;;;4.57;71.20;102270.75;5067200;28;20664;-58
2022/01/12 12:48:26;;;;;;;10.17;9.03;;;;;;;4.47;72.34;102273.25;5058061;28;20573;-57